sensor_id;sensor_type;location;lat;lon;timestamp;pressure;altitude;pressure_sealevel;temperature;humidity
56632;BME280;42503;39.928;-75.152;2023-04-23T00:07:05;100978.94;;;25.37;43.53
56632;BME280;42503;39.928;-75.152;2023-04-23T00:17:07;100981.53;;;25.33;43.35
56632;BME280;42503;39.928;-75.152;2023-04-23T00:27:08;100950.44;;;25.21;43.72
56632;BME280;42503;39.928;-75.152;2023-04-23T00:37:10;100957.25;;;25.28;43.74
56632;BME280;42503;39.928;-75.152;2023-04-23T00:47:12;100948.97;;;25.23;43.53
56632;BME280;42503;39.928;-75.152;2023-04-23T00:57:14;100948.13;;;25.09;43.42
56632;BME280;42503;39.928;-75.152;2023-04-23T01:07:19;100944.00;;;25.34;43.63
56632;BME280;42503;39.928;-75.152;2023-04-23T01:17:24;100933.63;;;25.34;43.62
56632;BME280;42503;39.928;-75.152;2023-04-23T01:27:26;100932.59;;;25.30;43.70
56632;BME280;42503;39.928;-75.152;2023-04-23T01:37:31;100889.41;;;25.04;43.65
56632;BME280;42503;39.928;-75.152;2023-04-23T01:47:34;100914.53;;;25.23;43.49
56632;BME280;42503;39.928;-75.152;2023-04-23T01:57:35;100896.28;;;25.39;42.85
56632;BME280;42503;39.928;-75.152;2023-04-23T02:07:37;100861.22;;;25.14;43.00
56632;BME280;42503;39.928;-75.152;2023-04-23T02:17:41;100899.59;;;25.41;43.76
56632;BME280;42503;39.928;-75.152;2023-04-23T02:27:45;100879.47;;;25.25;43.36
56632;BME280;42503;39.928;-75.152;2023-04-23T02:37:53;100852.50;;;25.29;42.57
56632;BME280;42503;39.928;-75.152;2023-04-23T02:47:54;100844.19;;;25.24;43.73
56632;BME280;42503;39.928;-75.152;2023-04-23T02:57:56;100883.59;;;25.42;43.66
56632;BME280;42503;39.928;-75.152;2023-04-23T03:07:57;100890.03;;;25.42;43.42
56632;BME280;42503;39.928;-75.152;2023-04-23T03:17:58;100908.81;;;25.42;43.58
56632;BME280;42503;39.928;-75.152;2023-04-23T03:28:01;100913.69;;;25.22;43.39
56632;BME280;42503;39.928;-75.152;2023-04-23T03:38:05;100935.16;;;25.41;43.28
56632;BME280;42503;39.928;-75.152;2023-04-23T03:48:07;100921.16;;;25.41;43.23
56632;BME280;42503;39.928;-75.152;2023-04-23T03:58:09;100933.19;;;25.41;43.09
56632;BME280;42503;39.928;-75.152;2023-04-23T04:08:10;100934.97;;;25.37;43.04
56632;BME280;42503;39.928;-75.152;2023-04-23T04:18:12;100915.66;;;25.35;43.56
56632;BME280;42503;39.928;-75.152;2023-04-23T04:28:16;100914.53;;;25.37;42.69
56632;BME280;42503;39.928;-75.152;2023-04-23T04:38:17;100891.72;;;25.29;42.62
56632;BME280;42503;39.928;-75.152;2023-04-23T04:48:20;100880.91;;;25.37;42.87
56632;BME280;42503;39.928;-75.152;2023-04-23T04:58:21;100830.19;;;25.24;43.44
56632;BME280;42503;39.928;-75.152;2023-04-23T05:08:23;100791.91;;;25.06;43.32
56632;BME280;42503;39.928;-75.152;2023-04-23T05:18:24;100791.84;;;25.25;43.39
56632;BME280;42503;39.928;-75.152;2023-04-23T05:28:26;100804.44;;;25.36;43.72
56632;BME280;42503;39.928;-75.152;2023-04-23T05:38:30;100794.84;;;25.15;43.62
56632;BME280;42503;39.928;-75.152;2023-04-23T05:48:34;100820.44;;;25.35;43.56
56632;BME280;42503;39.928;-75.152;2023-04-23T05:58:38;100760.19;;;25.24;43.79
56632;BME280;42503;39.928;-75.152;2023-04-23T06:08:39;100777.72;;;25.30;43.83
56632;BME280;42503;39.928;-75.152;2023-04-23T06:18:44;100769.59;;;25.28;43.84
56632;BME280;42503;39.928;-75.152;2023-04-23T06:28:49;100749.63;;;25.21;44.01
56632;BME280;42503;39.928;-75.152;2023-04-23T06:38:50;100759.06;;;25.25;43.68
56632;BME280;42503;39.928;-75.152;2023-04-23T06:48:54;100752.22;;;25.04;44.11
56632;BME280;42503;39.928;-75.152;2023-04-23T06:58:56;100769.50;;;25.06;44.31
56632;BME280;42503;39.928;-75.152;2023-04-23T07:08:57;100791.91;;;25.06;44.29
56632;BME280;42503;39.928;-75.152;2023-04-23T07:19:00;100803.31;;;24.96;44.32
56632;BME280;42503;39.928;-75.152;2023-04-23T07:29:04;100814.63;;;24.91;44.52
56632;BME280;42503;39.928;-75.152;2023-04-23T07:39:07;100687.63;;;24.04;44.30
56632;BME280;42503;39.928;-75.152;2023-04-23T07:49:11;100797.44;;;24.56;44.55
56632;BME280;42503;39.928;-75.152;2023-04-23T07:59:16;100847.59;;;24.66;44.11
56632;BME280;42503;39.928;-75.152;2023-04-23T08:09:17;100870.47;;;24.68;44.09
56632;BME280;42503;39.928;-75.152;2023-04-23T08:19:18;100823.91;;;24.45;44.33
56632;BME280;42503;39.928;-75.152;2023-04-23T08:29:20;100840.41;;;24.60;44.40
56632;BME280;42503;39.928;-75.152;2023-04-23T08:39:21;100819.47;;;24.44;44.34
56632;BME280;42503;39.928;-75.152;2023-04-23T08:49:27;100810.97;;;24.49;44.28
56632;BME280;42503;39.928;-75.152;2023-04-23T08:59:33;100750.19;;;24.22;44.38
56632;BME280;42503;39.928;-75.152;2023-04-23T09:09:39;100799.56;;;24.45;43.93
56632;BME280;42503;39.928;-75.152;2023-04-23T09:19:44;100820.13;;;24.35;43.77
56632;BME280;42503;39.928;-75.152;2023-04-23T09:29:48;100834.94;;;24.36;43.81
56632;BME280;42503;39.928;-75.152;2023-04-23T09:39:53;100825.22;;;24.33;43.49
56632;BME280;42503;39.928;-75.152;2023-04-23T09:49:58;100791.41;;;24.16;43.88
56632;BME280;42503;39.928;-75.152;2023-04-23T10:00:14;100810.88;;;24.21;43.87
56632;BME280;42503;39.928;-75.152;2023-04-23T10:10:19;100831.59;;;24.20;43.64
56632;BME280;42503;39.928;-75.152;2023-04-23T10:20:22;100820.66;;;24.05;43.40
56632;BME280;42503;39.928;-75.152;2023-04-23T10:30:26;100845.75;;;23.91;43.09
56632;BME280;42503;39.928;-75.152;2023-04-23T10:40:32;100873.78;;;24.05;43.24
56632;BME280;42503;39.928;-75.152;2023-04-23T10:50:39;100890.47;;;23.91;43.05
56632;BME280;42503;39.928;-75.152;2023-04-23T11:10:56;100911.34;;;23.80;43.25
56632;BME280;42503;39.928;-75.152;2023-04-23T11:20:58;100879.25;;;23.53;42.58
56632;BME280;42503;39.928;-75.152;2023-04-23T11:30:59;100912.63;;;23.64;42.86
56632;BME280;42503;39.928;-75.152;2023-04-23T11:41:01;100932.69;;;23.71;42.78
56632;BME280;42503;39.928;-75.152;2023-04-23T11:51:03;100943.03;;;23.70;42.95
56632;BME280;42503;39.928;-75.152;2023-04-23T12:01:04;100946.78;;;23.61;42.16
56632;BME280;42503;39.928;-75.152;2023-04-23T12:11:06;100958.78;;;23.61;42.87
56632;BME280;42503;39.928;-75.152;2023-04-23T12:21:09;100969.38;;;23.64;42.26
56632;BME280;42503;39.928;-75.152;2023-04-23T12:31:18;100974.84;;;23.50;41.90
56632;BME280;42503;39.928;-75.152;2023-04-23T12:41:19;100969.91;;;23.42;42.28
56632;BME280;42503;39.928;-75.152;2023-04-23T12:51:21;101007.97;;;23.57;41.90
56632;BME280;42503;39.928;-75.152;2023-04-23T13:01:25;100989.22;;;23.39;41.54
56632;BME280;42503;39.928;-75.152;2023-04-23T13:11:30;101003.50;;;23.32;40.63
56632;BME280;42503;39.928;-75.152;2023-04-23T13:21:32;101041.13;;;23.40;40.72
56632;BME280;42503;39.928;-75.152;2023-04-23T13:31:39;101038.19;;;23.26;40.58
56632;BME280;42503;39.928;-75.152;2023-04-23T13:41:43;101069.41;;;23.33;40.13
56632;BME280;42503;39.928;-75.152;2023-04-23T13:51:45;101087.53;;;23.36;41.05
56632;BME280;42503;39.928;-75.152;2023-04-23T14:01:46;101088.41;;;23.31;40.52
56632;BME280;42503;39.928;-75.152;2023-04-23T14:11:51;101107.69;;;23.32;39.42
56632;BME280;42503;39.928;-75.152;2023-04-23T14:21:55;101103.00;;;23.23;39.68
56632;BME280;42503;39.928;-75.152;2023-04-23T14:31:56;101100.59;;;23.11;39.45
56632;BME280;42503;39.928;-75.152;2023-04-23T14:41:57;101095.09;;;23.01;39.49
56632;BME280;42503;39.928;-75.152;2023-04-23T14:51:59;101138.97;;;23.29;39.00
56632;BME280;42503;39.928;-75.152;2023-04-23T15:02:03;101127.88;;;23.19;37.84
56632;BME280;42503;39.928;-75.152;2023-04-23T15:12:06;101120.56;;;23.28;38.95
56632;BME280;42503;39.928;-75.152;2023-04-23T15:22:27;101115.34;;;23.17;38.74
56632;BME280;42503;39.928;-75.152;2023-04-23T15:32:28;101124.06;;;23.39;38.31
56632;BME280;42503;39.928;-75.152;2023-04-23T15:42:29;101124.94;;;23.34;37.18
56632;BME280;42503;39.928;-75.152;2023-04-23T15:52:35;101106.66;;;23.18;35.32
56632;BME280;42503;39.928;-75.152;2023-04-23T16:02:37;101130.00;;;23.32;33.62
56632;BME280;42503;39.928;-75.152;2023-04-23T16:12:39;101090.84;;;23.08;33.69
56632;BME280;42503;39.928;-75.152;2023-04-23T16:22:45;101083.50;;;23.18;35.00
56632;BME280;42503;39.928;-75.152;2023-04-23T16:32:46;101007.59;;;22.81;34.97
56632;BME280;42503;39.928;-75.152;2023-04-23T16:42:48;101069.75;;;23.26;33.52
56632;BME280;42503;39.928;-75.152;2023-04-23T16:52:49;101053.34;;;23.20;33.69
56632;BME280;42503;39.928;-75.152;2023-04-23T17:02:51;101062.75;;;23.29;32.85
56632;BME280;42503;39.928;-75.152;2023-04-23T17:12:55;101043.53;;;23.22;32.38
56632;BME280;42503;39.928;-75.152;2023-04-23T17:22:56;101021.84;;;23.14;32.45
56632;BME280;42503;39.928;-75.152;2023-04-23T17:33:00;101039.03;;;23.26;32.91
56632;BME280;42503;39.928;-75.152;2023-04-23T17:43:02;101036.78;;;23.28;32.72
56632;BME280;42503;39.928;-75.152;2023-04-23T17:53:03;101035.09;;;23.27;32.97
56632;BME280;42503;39.928;-75.152;2023-04-23T18:03:05;101038.63;;;23.38;33.99
56632;BME280;42503;39.928;-75.152;2023-04-23T18:13:08;101013.91;;;23.26;33.17
56632;BME280;42503;39.928;-75.152;2023-04-23T18:23:11;101038.91;;;23.37;33.63
56632;BME280;42503;39.928;-75.152;2023-04-23T18:33:29;101059.47;;;23.51;33.68
56632;BME280;42503;39.928;-75.152;2023-04-23T18:43:34;101030.31;;;23.33;33.05
56632;BME280;42503;39.928;-75.152;2023-04-23T18:53:35;101051.06;;;23.51;31.97
56632;BME280;42503;39.928;-75.152;2023-04-23T19:03:38;101072.28;;;23.52;32.13
56632;BME280;42503;39.928;-75.152;2023-04-23T19:13:42;101057.81;;;23.45;33.40
56632;BME280;42503;39.928;-75.152;2023-04-23T19:23:46;101047.53;;;23.40;32.74
56632;BME280;42503;39.928;-75.152;2023-04-23T19:33:48;101076.69;;;23.58;32.00
56632;BME280;42503;39.928;-75.152;2023-04-23T19:43:49;101073.38;;;23.56;31.34
56632;BME280;42503;39.928;-75.152;2023-04-23T19:53:53;101088.47;;;23.55;31.90
56632;BME280;42503;39.928;-75.152;2023-04-23T20:03:56;101084.34;;;23.47;32.13
56632;BME280;42503;39.928;-75.152;2023-04-23T20:13:57;101067.41;;;23.39;32.83
56632;BME280;42503;39.928;-75.152;2023-04-23T20:24:01;101094.88;;;23.55;32.82
56632;BME280;42503;39.928;-75.152;2023-04-23T20:34:03;101110.81;;;23.55;32.51
56632;BME280;42503;39.928;-75.152;2023-04-23T20:44:08;101133.63;;;23.62;31.76
56632;BME280;42503;39.928;-75.152;2023-04-23T20:54:11;101155.69;;;23.64;31.90
56632;BME280;42503;39.928;-75.152;2023-04-23T21:04:13;101155.97;;;23.62;31.55
56632;BME280;42503;39.928;-75.152;2023-04-23T21:14:14;101149.38;;;23.53;32.35
56632;BME280;42503;39.928;-75.152;2023-04-23T21:24:16;101161.56;;;23.62;33.22
56632;BME280;42503;39.928;-75.152;2023-04-23T21:34:17;101163.22;;;23.63;32.55
56632;BME280;42503;39.928;-75.152;2023-04-23T21:44:22;101176.59;;;23.71;33.18
56632;BME280;42503;39.928;-75.152;2023-04-23T21:54:23;101200.09;;;23.70;31.77
56632;BME280;42503;39.928;-75.152;2023-04-23T22:04:25;101193.44;;;23.61;31.21
56632;BME280;42503;39.928;-75.152;2023-04-23T22:14:27;101195.50;;;23.50;31.29
56632;BME280;42503;39.928;-75.152;2023-04-23T22:24:31;101156.84;;;23.28;32.00
56632;BME280;42503;39.928;-75.152;2023-04-23T22:34:33;101227.00;;;23.56;31.18
56632;BME280;42503;39.928;-75.152;2023-04-23T22:44:34;101239.53;;;23.58;30.98
56632;BME280;42503;39.928;-75.152;2023-04-23T22:54:41;101249.91;;;23.53;30.75
56632;BME280;42503;39.928;-75.152;2023-04-23T23:04:44;101242.84;;;23.26;29.65
56632;BME280;42503;39.928;-75.152;2023-04-23T23:14:46;101280.25;;;23.30;29.76
56632;BME280;42503;39.928;-75.152;2023-04-23T23:24:47;101296.50;;;23.18;29.29
56632;BME280;42503;39.928;-75.152;2023-04-23T23:34:49;101293.81;;;22.98;29.31
56632;BME280;42503;39.928;-75.152;2023-04-23T23:44:50;101316.72;;;22.95;30.17
56632;BME280;42503;39.928;-75.152;2023-04-23T23:54:56;101356.91;;;22.94;30.07
